createdAt,value
2022-08-11T00:01:59.147Z,2.50
2022-08-11T00:04:27.751Z,2.70
2022-08-11T00:06:54.966Z,2.58
2022-08-11T00:09:32.651Z,3.10
2022-08-11T00:12:16.897Z,2.78
2022-08-11T00:14:44.696Z,2.63
2022-08-11T00:17:13.541Z,2.90
2022-08-11T00:20:12.751Z,2.53
2022-08-11T00:22:39.299Z,2.38
2022-08-11T00:25:15.362Z,2.80
2022-08-11T00:27:42.737Z,2.53
2022-08-11T00:30:10.871Z,3.00
2022-08-11T00:32:38.765Z,2.60
2022-08-11T00:35:50.821Z,3.22
2022-08-11T00:37:57.745Z,3.08
2022-08-11T00:40:43.099Z,2.70
2022-08-11T00:43:29.302Z,2.95
2022-08-11T00:46:14.120Z,2.75
2022-08-11T00:49:15.970Z,2.92
2022-08-11T00:52:18.529Z,2.80
2022-08-11T00:55:12.774Z,3.50
2022-08-11T00:57:58.005Z,3.20
2022-08-11T01:00:27.146Z,2.83
2022-08-11T01:03:30.651Z,2.85
2022-08-11T01:06:29.126Z,3.03
2022-08-11T01:09:22.438Z,2.73
2022-08-11T01:12:17.285Z,3.05
2022-08-11T01:15:05.636Z,2.78
2022-08-11T01:17:53.656Z,2.90
2022-08-11T01:20:46.457Z,3.20
2022-08-11T01:23:53.030Z,2.90
2022-08-11T01:26:41.335Z,3.05
2022-08-11T01:29:49.891Z,2.65
2022-08-11T01:32:40.874Z,2.90
2022-08-11T01:35:29.392Z,3.00
2022-08-11T01:38:18.737Z,2.70
2022-08-11T01:41:09.999Z,3.75
2022-08-11T01:44:23.319Z,3.03
2022-08-11T01:47:52.585Z,2.92
2022-08-11T01:50:42.134Z,3.15
2022-08-11T01:53:40.158Z,2.80
2022-08-11T01:56:17.359Z,3.20
2022-08-11T01:59:14.970Z,2.83
2022-08-11T02:01:58.255Z,3.17
2022-08-11T02:04:38.826Z,3.13
2022-08-11T02:07:10.370Z,3.10
2022-08-11T02:10:38.328Z,3.30
2022-08-11T02:13:16.009Z,2.83
2022-08-11T02:15:57.830Z,2.90
2022-08-11T02:18:48.930Z,3.08
2022-08-11T02:21:39.457Z,3.13
2022-08-11T02:24:14.937Z,3.08
2022-08-11T02:26:46.946Z,3.15
2022-08-11T02:29:48.951Z,2.70
2022-08-11T02:32:39.620Z,3.17
2022-08-11T02:35:14.600Z,2.67
2022-08-11T02:38:11.429Z,2.60
2022-08-11T02:40:44.014Z,2.67
2022-08-11T02:43:35.675Z,2.80
2022-08-11T02:46:22.470Z,3.20
2022-08-11T02:49:24.910Z,3.10
2022-08-11T02:51:54.491Z,3.40
2022-08-11T02:54:27.483Z,2.80
2022-08-11T02:57:18.349Z,3.03
2022-08-11T02:59:54.223Z,3.55
2022-08-11T03:02:27.911Z,3.17
2022-08-11T03:04:57.615Z,2.95
2022-08-11T03:07:57.252Z,2.88
2022-08-11T03:10:30.051Z,3.10
2022-08-11T03:13:47.611Z,3.08
2022-08-11T03:16:47.214Z,3.37
2022-08-11T03:19:51.929Z,3.78
2022-08-11T03:22:38.800Z,3.20
2022-08-11T03:25:15.757Z,2.92
2022-08-11T03:28:10.196Z,3.47
2022-08-11T03:30:53.274Z,3.13
2022-08-11T03:33:44.395Z,3.35
2022-08-11T03:37:15.494Z,3.20
2022-08-11T03:40:08.655Z,2.80
2022-08-11T03:42:58.045Z,3.15
2022-08-11T03:45:47.708Z,2.87
2022-08-11T03:48:23.202Z,3.15
2022-08-11T03:51:13.707Z,2.75
2022-08-11T03:53:58.226Z,3.28
2022-08-11T03:56:52.439Z,3.00
2022-08-11T03:59:51.243Z,3.00
2022-08-11T04:02:24.352Z,3.17
2022-08-11T04:05:15.267Z,3.65
2022-08-11T04:08:03.632Z,3.53
2022-08-11T04:10:59.736Z,3.15
2022-08-11T04:14:23.790Z,3.00
2022-08-11T04:17:19.478Z,3.00
2022-08-11T04:20:17.797Z,3.20
2022-08-11T04:22:48.336Z,3.30
2022-08-11T04:25:18.980Z,3.38
2022-08-11T04:27:59.761Z,3.37
2022-08-11T04:31:05.609Z,3.40
2022-08-11T04:33:59.689Z,3.13
2022-08-11T04:37:15.413Z,3.80
2022-08-11T04:40:00.848Z,3.38
2022-08-11T04:43:11.075Z,3.27
2022-08-11T04:46:09.375Z,3.28
2022-08-11T04:49:25.945Z,3.28
2022-08-11T04:52:43.835Z,3.60
2022-08-11T04:56:16.065Z,3.38
2022-08-11T04:59:27.343Z,3.83
2022-08-11T05:02:17.353Z,3.75
2022-08-11T05:05:33.800Z,3.72
2022-08-11T05:08:23.852Z,3.47
2022-08-11T05:11:00.282Z,3.85
2022-08-11T05:14:03.535Z,3.37
2022-08-11T05:16:53.315Z,3.65
2022-08-11T05:19:39.773Z,3.75
2022-08-11T05:22:28.182Z,3.90
2022-08-11T05:26:09.340Z,3.78
2022-08-11T05:28:51.327Z,3.70
2022-08-11T05:31:39.559Z,3.45
2022-08-11T05:34:41.721Z,4.03
2022-08-11T05:37:26.264Z,3.83
2022-08-11T05:40:16.179Z,3.67
2022-08-11T05:43:07.793Z,3.77
2022-08-11T05:46:02.862Z,3.75
2022-08-11T05:48:52.617Z,3.72
2022-08-11T05:51:38.368Z,3.70
2022-08-11T05:54:28.639Z,3.70
2022-08-11T05:57:00.201Z,4.07
2022-08-11T05:59:30.579Z,4.00
2022-08-11T06:02:05.979Z,3.90
2022-08-11T06:04:33.182Z,4.40
2022-08-11T06:07:03.976Z,4.50
2022-08-11T06:09:38.570Z,4.63
2022-08-11T06:12:16.701Z,4.10
2022-08-11T06:14:46.091Z,4.30
2022-08-11T06:17:13.889Z,4.20
2022-08-11T06:19:42.158Z,4.38
2022-08-11T06:22:11.943Z,4.50
2022-08-11T06:24:42.217Z,4.38
2022-08-11T06:27:12.632Z,4.30
2022-08-11T06:29:48.336Z,4.18
2022-08-11T06:32:27.284Z,4.60
2022-08-11T06:35:18.400Z,4.30
2022-08-11T06:38:17.318Z,4.80
2022-08-11T06:41:11.418Z,4.47
2022-08-11T06:43:55.630Z,4.78
2022-08-11T06:46:31.557Z,3.90
2022-08-11T06:49:02.356Z,4.00
2022-08-11T06:51:32.473Z,4.35
2022-08-11T06:54:04.739Z,3.92
2022-08-11T06:57:28.989Z,4.30
2022-08-11T07:00:06.518Z,3.75
2022-08-11T07:02:52.018Z,4.10
2022-08-11T07:05:37.406Z,3.78
2022-08-11T07:08:44.870Z,4.10
2022-08-11T07:11:36.006Z,3.50
2022-08-11T07:14:23.184Z,3.42
2022-08-11T07:16:51.617Z,3.57
2022-08-11T07:19:42.754Z,3.58
2022-08-11T07:22:29.089Z,3.83
2022-08-11T07:25:19.065Z,3.97
2022-08-11T07:28:08.848Z,3.50
2022-08-11T07:30:41.541Z,4.00
2022-08-11T07:33:09.395Z,3.65
2022-08-11T07:35:44.050Z,3.80
2022-08-11T07:38:25.363Z,3.80
2022-08-11T07:40:52.342Z,3.40
2022-08-11T07:43:19.094Z,3.47
2022-08-11T07:46:04.719Z,2.78
2022-08-11T07:48:50.287Z,3.20
2022-08-11T07:51:38.616Z,3.30
2022-08-11T07:54:16.592Z,3.50
2022-08-11T07:56:54.503Z,3.20
2022-08-11T08:00:03.612Z,3.30
2022-08-11T08:02:47.755Z,3.13
2022-08-11T08:05:34.408Z,3.20
2022-08-11T08:08:19.733Z,3.20
2022-08-11T08:11:04.771Z,3.30
2022-08-11T08:13:51.976Z,3.10
2022-08-11T08:16:38.097Z,2.85
2022-08-11T08:19:05.326Z,3.38
2022-08-11T08:21:32.234Z,3.10
2022-08-11T08:23:59.031Z,2.60
2022-08-11T08:26:51.295Z,2.80
2022-08-11T08:29:38.566Z,3.10
2022-08-11T08:32:05.554Z,3.00
2022-08-11T08:34:33.613Z,2.75
2022-08-11T08:37:00.828Z,2.77
2022-08-11T08:39:27.605Z,2.80
2022-08-11T08:41:56.697Z,2.85
2022-08-11T08:44:41.351Z,2.60
2022-08-11T08:47:14.383Z,2.75
2022-08-11T08:49:49.009Z,3.23
2022-08-11T08:52:33.318Z,2.67
2022-08-11T08:55:04.166Z,3.25
2022-08-11T08:57:39.098Z,3.00
2022-08-11T09:00:08.704Z,3.00
2022-08-11T09:02:36.508Z,3.00
2022-08-11T09:05:04.759Z,2.97
2022-08-11T09:07:38.972Z,3.20
2022-08-11T09:10:08.384Z,2.92
2022-08-11T09:12:36.419Z,2.88
2022-08-11T09:15:06.394Z,2.80
2022-08-11T09:17:37.210Z,2.85
2022-08-11T09:20:09.112Z,3.00
2022-08-11T09:26:06.050Z,2.88
2022-08-11T09:28:33.008Z,2.90
2022-08-11T09:31:01.205Z,3.30
2022-08-11T09:33:29.192Z,3.63
2022-08-11T09:35:56.689Z,3.38
2022-08-11T09:38:49.283Z,3.92
2022-08-11T09:41:16.736Z,2.40
2022-08-11T09:44:04.644Z,3.17
2022-08-11T09:46:33.180Z,3.47
2022-08-11T09:49:01.070Z,2.88
2022-08-11T09:51:32.149Z,2.88
2022-08-11T09:54:06.581Z,3.40
2022-08-11T09:56:52.316Z,3.17
2022-08-11T09:59:21.553Z,3.10
2022-08-11T10:01:52.894Z,3.15
2022-08-11T10:04:45.374Z,3.03
2022-08-11T10:07:15.864Z,3.40
2022-08-11T10:09:49.286Z,3.17
2022-08-11T10:12:29.674Z,2.80
2022-08-11T10:15:19.529Z,2.90
2022-08-11T10:18:07.831Z,3.38
2022-08-11T10:20:36.537Z,3.07
2022-08-11T10:23:22.578Z,2.88
2022-08-11T10:26:07.934Z,2.90
2022-08-11T10:28:50.025Z,2.70
2022-08-11T10:31:57.837Z,2.78
2022-08-11T10:34:28.391Z,3.47
2022-08-11T10:36:57.142Z,2.42
2022-08-11T10:39:24.357Z,2.80
2022-08-11T10:42:17.047Z,3.13
2022-08-11T10:44:54.141Z,2.70
2022-08-11T10:47:38.333Z,2.70
2022-08-11T10:50:32.122Z,2.80
2022-08-11T10:53:18.441Z,2.97
2022-08-11T10:58:50.158Z,2.33
2022-08-11T11:01:23.071Z,3.03
2022-08-11T11:03:59.434Z,2.83
2022-08-11T11:06:36.154Z,2.80
2022-08-11T11:09:13.382Z,2.60
2022-08-11T11:12:03.961Z,2.60
2022-08-11T11:14:56.377Z,2.30
2022-08-11T11:17:47.486Z,2.67
2022-08-11T11:20:36.526Z,2.70
2022-08-11T11:23:27.032Z,2.85
2022-08-11T11:26:11.853Z,2.50
2022-08-11T11:29:09.095Z,2.70
2022-08-11T11:31:54.487Z,2.65
2022-08-11T11:34:52.762Z,2.38
2022-08-11T11:37:23.137Z,2.17
2022-08-11T11:39:49.864Z,2.63
2022-08-11T11:42:17.314Z,2.23
2022-08-11T11:44:45.907Z,2.10
2022-08-11T11:47:13.177Z,2.25
2022-08-11T11:49:43.890Z,2.47
2022-08-11T11:52:15.245Z,2.20
2022-08-11T11:54:42.540Z,2.20
2022-08-11T11:57:29.784Z,2.30
2022-08-11T12:00:15.775Z,2.10
2022-08-11T12:02:43.497Z,2.00
2022-08-11T12:05:11.007Z,1.85
2022-08-11T12:08:10.357Z,2.50
2022-08-11T12:11:12.585Z,1.90
2022-08-11T12:13:45.045Z,2.10
2022-08-11T12:16:33.648Z,1.98
2022-08-11T12:19:01.096Z,2.20
2022-08-11T12:21:28.981Z,2.17
2022-08-11T12:24:16.247Z,1.98
2022-08-11T12:27:15.661Z,1.70
2022-08-11T12:29:54.574Z,2.00
2022-08-11T12:32:30.158Z,1.85
2022-08-11T12:34:57.809Z,2.00
2022-08-11T12:37:31.504Z,1.70
2022-08-11T12:40:42.994Z,1.60
2022-08-11T12:43:40.060Z,1.50
2022-08-11T12:46:10.275Z,1.70
2022-08-11T12:49:03.029Z,1.80
2022-08-11T12:52:11.397Z,1.73
2022-08-11T12:54:52.350Z,1.50
2022-08-11T12:57:58.480Z,1.55
2022-08-11T13:00:44.880Z,1.60
2022-08-11T13:03:31.080Z,1.97
2022-08-11T13:06:00.088Z,1.83
2022-08-11T13:08:29.622Z,1.50
2022-08-11T13:11:16.904Z,1.65
2022-08-11T13:13:55.836Z,1.98
2022-08-11T13:16:26.722Z,1.60
2022-08-11T13:18:53.761Z,1.80
2022-08-11T13:21:21.469Z,1.70
2022-08-11T13:24:01.818Z,1.40
2022-08-11T13:26:47.000Z,1.50
2022-08-11T13:29:21.979Z,1.80
2022-08-11T13:31:48.798Z,1.45
2022-08-11T13:34:17.049Z,1.67
2022-08-11T13:36:44.104Z,1.70
2022-08-11T13:39:11.549Z,1.48
2022-08-11T13:41:41.815Z,1.30
2022-08-11T13:44:10.377Z,1.65
2022-08-11T13:46:38.016Z,1.83
2022-08-11T13:49:09.068Z,1.40
2022-08-11T13:51:38.474Z,1.40
2022-08-11T13:54:07.917Z,1.83
2022-08-11T13:56:36.476Z,1.90
2022-08-11T13:59:04.163Z,1.90
2022-08-11T14:02:19.483Z,1.70
2022-08-11T14:04:40.906Z,1.55
2022-08-11T14:07:09.526Z,1.40
2022-08-11T14:09:42.937Z,1.70
2022-08-11T14:12:34.775Z,1.75
2022-08-11T14:15:08.642Z,1.40
2022-08-11T14:17:48.438Z,1.45
2022-08-11T14:20:39.811Z,1.50
2022-08-11T14:23:05.191Z,1.30
2022-08-11T14:26:00.591Z,1.30
2022-08-11T14:28:33.504Z,1.20
2022-08-11T14:31:05.313Z,1.50
2022-08-11T14:34:00.606Z,1.10
2022-08-11T14:36:23.090Z,1.40
2022-08-11T14:38:50.170Z,1.58
2022-08-11T14:41:37.071Z,1.50
2022-08-11T14:44:43.771Z,1.42
2022-08-11T14:47:24.224Z,1.60
2022-08-11T14:49:58.472Z,1.67
2022-08-11T14:52:38.434Z,1.58
2022-08-11T14:55:24.604Z,1.50
2022-08-11T14:57:56.691Z,1.75
2022-08-11T15:00:24.577Z,1.80
2022-08-11T15:03:11.126Z,1.88
2022-08-11T15:05:45.122Z,1.58
2022-08-11T15:08:52.924Z,1.40
2022-08-11T15:11:40.429Z,1.70
2022-08-11T15:14:08.774Z,1.47
2022-08-11T15:17:00.340Z,1.60
2022-08-11T15:19:30.087Z,1.25
2022-08-11T15:22:28.068Z,1.50
2022-08-11T15:24:55.556Z,1.40
2022-08-11T15:27:41.614Z,1.20
2022-08-11T15:30:33.135Z,1.63
2022-08-11T15:33:26.900Z,1.30
2022-08-11T15:36:13.591Z,1.20
2022-08-11T15:38:44.570Z,1.30
2022-08-11T15:41:33.149Z,1.50
2022-08-11T15:44:19.342Z,1.30
2022-08-11T15:46:49.638Z,1.38
2022-08-11T15:49:23.992Z,1.40
2022-08-11T15:52:02.444Z,1.50
2022-08-11T15:54:31.288Z,1.70
2022-08-11T15:57:01.895Z,1.30
2022-08-11T15:59:50.401Z,1.33
2022-08-11T16:02:38.380Z,1.27
2022-08-11T16:05:08.688Z,1.48
2022-08-11T16:07:38.462Z,1.33
2022-08-11T16:10:19.483Z,1.45
2022-08-11T16:13:07.239Z,1.30
2022-08-11T16:15:54.874Z,1.48
2022-08-11T16:18:40.975Z,1.20
2022-08-11T16:21:26.154Z,1.30
2022-08-11T16:24:01.166Z,1.60
2022-08-11T16:27:10.078Z,1.73
2022-08-11T16:29:16.675Z,1.20
2022-08-11T16:32:03.592Z,1.38
2022-08-11T16:34:49.390Z,1.80
2022-08-11T16:37:35.233Z,1.42
2022-08-11T16:40:02.352Z,2.15
2022-08-11T16:43:05.213Z,1.50
2022-08-11T16:45:53.366Z,1.73
2022-08-11T16:48:36.452Z,1.77
2022-08-11T16:51:08.638Z,1.85
2022-08-11T16:53:54.595Z,1.83
2022-08-11T16:56:34.559Z,1.70
2022-08-11T16:59:16.597Z,1.38
2022-08-11T17:01:57.019Z,1.90
2022-08-11T17:05:00.559Z,2.13
2022-08-11T17:07:47.455Z,1.40
2022-08-11T17:10:51.869Z,1.50
2022-08-11T17:13:24.265Z,1.73
2022-08-11T17:16:07.497Z,1.80
2022-08-11T17:18:44.914Z,1.35
2022-08-11T17:21:22.257Z,1.60
2022-08-11T17:24:09.355Z,1.95
2022-08-11T17:26:58.255Z,1.52
2022-08-11T17:29:33.656Z,1.50
2022-08-11T17:32:55.684Z,1.70
2022-08-11T17:35:32.692Z,2.03
2022-08-11T17:38:19.510Z,1.50
2022-08-11T17:41:13.538Z,1.48
2022-08-11T17:44:09.497Z,1.80
2022-08-11T17:46:55.622Z,1.70
2022-08-11T17:49:22.863Z,1.40
2022-08-11T17:52:09.090Z,1.70
2022-08-11T17:54:56.225Z,1.70
2022-08-11T17:57:47.025Z,1.60
2022-08-11T18:00:15.207Z,1.77
2022-08-11T18:03:02.430Z,1.35
2022-08-11T18:05:34.232Z,1.52
2022-08-11T18:08:24.387Z,1.80
2022-08-11T18:11:10.508Z,1.50
2022-08-11T18:13:57.426Z,1.42
2022-08-11T18:16:43.050Z,1.52
2022-08-11T18:19:30.693Z,1.50
2022-08-11T18:22:25.854Z,1.52
2022-08-11T18:25:14.542Z,1.20
2022-08-11T18:28:03.168Z,1.40
2022-08-11T18:30:52.196Z,1.30
2022-08-11T18:34:06.955Z,1.75
2022-08-11T18:36:57.510Z,1.60
2022-08-11T18:39:43.680Z,1.40
2022-08-11T18:42:42.185Z,1.33
2022-08-11T18:45:30.000Z,1.42
2022-08-11T18:48:21.428Z,1.90
2022-08-11T18:51:30.518Z,1.50
2022-08-11T18:54:21.873Z,1.53
2022-08-11T18:57:07.706Z,1.25
2022-08-11T18:59:56.940Z,1.20
2022-08-11T19:02:49.152Z,1.83
2022-08-11T19:06:32.302Z,1.65
2022-08-11T19:08:45.849Z,1.70
2022-08-11T19:11:32.210Z,1.52
2022-08-11T19:14:18.767Z,1.13
2022-08-11T19:17:04.560Z,1.50
2022-08-11T19:19:50.635Z,1.75
2022-08-11T19:22:36.861Z,1.47
2022-08-11T19:25:25.574Z,1.50
2022-08-11T19:28:12.216Z,1.65
2022-08-11T19:30:58.458Z,1.73
2022-08-11T19:34:02.346Z,1.55
2022-08-11T19:36:50.046Z,1.87
2022-08-11T19:39:35.730Z,1.50
2022-08-11T19:42:21.509Z,1.55
2022-08-11T19:45:07.153Z,1.45
2022-08-11T19:48:03.329Z,1.70
2022-08-11T19:50:59.397Z,1.23
2022-08-11T19:53:46.187Z,1.40
2022-08-11T19:56:31.751Z,1.58
2022-08-11T19:59:17.442Z,1.75
2022-08-11T20:02:13.557Z,1.55
2022-08-11T20:05:00.684Z,1.60
2022-08-11T20:07:46.903Z,2.00
2022-08-11T20:10:35.539Z,1.52
2022-08-11T20:13:21.947Z,1.50
2022-08-11T20:16:07.658Z,1.80
2022-08-11T20:18:53.661Z,1.77
2022-08-11T20:21:39.391Z,1.60
2022-08-11T20:24:25.158Z,1.45
2022-08-11T20:27:18.786Z,1.60
2022-08-11T20:30:11.042Z,1.58
2022-08-11T20:32:57.224Z,1.77
2022-08-11T20:35:42.535Z,1.75
2022-08-11T20:38:28.183Z,2.10
2022-08-11T20:41:16.072Z,1.50
2022-08-11T20:44:08.159Z,1.73
2022-08-11T20:46:57.009Z,2.13
2022-08-11T20:49:50.607Z,1.40
2022-08-11T20:52:40.241Z,1.20
2022-08-11T20:55:51.550Z,1.30
2022-08-11T20:59:02.350Z,1.60
2022-08-11T21:01:41.260Z,1.57
2022-08-11T21:04:27.273Z,1.40
2022-08-11T21:07:15.151Z,1.55
2022-08-11T21:10:22.869Z,1.60
2022-08-11T21:13:26.260Z,1.50
2022-08-11T21:16:26.439Z,1.50
2022-08-11T21:20:00.215Z,1.85
2022-08-11T21:22:59.073Z,1.30
2022-08-11T21:25:59.765Z,1.30
2022-08-11T21:28:45.898Z,1.40
2022-08-11T21:31:31.479Z,1.40
2022-08-11T21:34:16.687Z,1.80
2022-08-11T21:37:03.256Z,1.50
2022-08-11T21:39:49.645Z,1.45
2022-08-11T21:42:38.289Z,1.73
2022-08-11T21:45:25.564Z,1.50
2022-08-11T21:48:11.190Z,1.67
2022-08-11T21:50:56.387Z,1.67
2022-08-11T21:53:41.915Z,1.95
2022-08-11T21:56:28.560Z,1.67
2022-08-11T21:59:15.148Z,1.67
2022-08-11T22:02:01.104Z,1.67
2022-08-11T22:04:46.854Z,1.50
2022-08-11T22:07:32.056Z,1.60
2022-08-11T22:10:35.985Z,1.92
2022-08-11T22:13:29.785Z,2.00
2022-08-11T22:16:15.150Z,1.55
2022-08-11T22:19:01.191Z,1.50
2022-08-11T22:22:03.576Z,1.58
2022-08-11T22:24:52.286Z,1.60
2022-08-11T22:27:39.271Z,1.80
2022-08-11T22:30:26.865Z,1.70
2022-08-11T22:33:12.193Z,1.55
2022-08-11T22:36:00.885Z,1.95
2022-08-11T22:38:47.103Z,1.90
2022-08-11T22:41:32.306Z,1.93
2022-08-11T22:44:18.620Z,1.88
2022-08-11T22:47:03.915Z,1.80
2022-08-11T22:49:57.526Z,2.40
2022-08-11T22:52:44.394Z,2.53
2022-08-11T22:55:29.581Z,2.03
2022-08-11T22:58:15.161Z,2.00
2022-08-11T23:01:00.637Z,1.52
2022-08-11T23:03:46.212Z,1.67
2022-08-11T23:06:32.085Z,1.73
2022-08-11T23:09:17.887Z,1.60
2022-08-11T23:12:07.941Z,1.73
2022-08-11T23:14:57.287Z,1.90
2022-08-11T23:17:43.183Z,1.80
2022-08-11T23:20:43.184Z,1.85
2022-08-11T23:23:34.613Z,1.60
2022-08-11T23:26:20.341Z,1.90
2022-08-11T23:29:06.352Z,1.70
2022-08-11T23:31:53.300Z,2.03
2022-08-11T23:35:03.998Z,1.90
2022-08-11T23:37:52.727Z,1.90
2022-08-11T23:40:38.018Z,2.03
2022-08-11T23:43:23.379Z,1.83
2022-08-11T23:46:08.428Z,1.83
2022-08-11T23:48:55.525Z,1.90
2022-08-11T23:51:41.633Z,1.73
2022-08-11T23:54:31.594Z,1.77
2022-08-11T23:57:20.280Z,1.90
